sensor_id;sensor_type;location;lat;lon;timestamp;pressure;altitude;pressure_sealevel;temperature;humidity
62124;BME280;48110;47.532;19.078;2023-04-28T00:02:22;100914.44;;;4.92;95.56
62124;BME280;48110;47.532;19.078;2023-04-28T00:05:25;100915.75;;;5.09;93.99
62124;BME280;48110;47.532;19.078;2023-04-28T00:08:28;100923.16;;;4.93;94.53
62124;BME280;48110;47.532;19.078;2023-04-28T00:11:31;100916.34;;;4.90;95.87
62124;BME280;48110;47.532;19.078;2023-04-28T00:14:33;100910.25;;;4.78;95.94
62124;BME280;48110;47.532;19.078;2023-04-28T00:17:36;100918.22;;;4.66;97.49
62124;BME280;48110;47.532;19.078;2023-04-28T00:20:39;100915.94;;;4.50;98.10
62124;BME280;48110;47.532;19.078;2023-04-28T00:23:41;100914.22;;;4.38;98.93
62124;BME280;48110;47.532;19.078;2023-04-28T00:26:44;100916.09;;;4.36;100.00
62124;BME280;48110;47.532;19.078;2023-04-28T00:29:46;100927.19;;;4.28;100.00
62124;BME280;48110;47.532;19.078;2023-04-28T00:32:49;100917.38;;;4.19;100.00
62124;BME280;48110;47.532;19.078;2023-04-28T00:35:59;100917.72;;;4.15;100.00
62124;BME280;48110;47.532;19.078;2023-04-28T00:39:02;100923.03;;;4.26;100.00
62124;BME280;48110;47.532;19.078;2023-04-28T00:42:05;100911.28;;;4.19;100.00
62124;BME280;48110;47.532;19.078;2023-04-28T00:45:07;100914.25;;;4.14;100.00
62124;BME280;48110;47.532;19.078;2023-04-28T00:48:11;100920.47;;;4.13;100.00
62124;BME280;48110;47.532;19.078;2023-04-28T00:51:14;100930.91;;;4.02;100.00
62124;BME280;48110;47.532;19.078;2023-04-28T00:54:17;100917.50;;;3.94;100.00
62124;BME280;48110;47.532;19.078;2023-04-28T00:57:20;100920.56;;;3.88;100.00
62124;BME280;48110;47.532;19.078;2023-04-28T01:00:23;100924.78;;;3.90;100.00
62124;BME280;48110;47.532;19.078;2023-04-28T01:03:26;100927.84;;;3.84;100.00
62124;BME280;48110;47.532;19.078;2023-04-28T01:06:29;100928.06;;;3.81;100.00
62124;BME280;48110;47.532;19.078;2023-04-28T01:09:33;100925.13;;;3.86;100.00
62124;BME280;48110;47.532;19.078;2023-04-28T01:12:36;100927.56;;;3.76;100.00
62124;BME280;48110;47.532;19.078;2023-04-28T01:15:39;100936.72;;;3.71;100.00
62124;BME280;48110;47.532;19.078;2023-04-28T01:18:43;100936.06;;;3.80;100.00
62124;BME280;48110;47.532;19.078;2023-04-28T01:21:49;100929.19;;;3.90;100.00
62124;BME280;48110;47.532;19.078;2023-04-28T01:24:51;100937.47;;;3.97;100.00
62124;BME280;48110;47.532;19.078;2023-04-28T01:27:54;100933.03;;;3.97;100.00
62124;BME280;48110;47.532;19.078;2023-04-28T01:30:57;100933.62;;;4.24;100.00
62124;BME280;48110;47.532;19.078;2023-04-28T01:33:59;100930.31;;;4.33;100.00
62124;BME280;48110;47.532;19.078;2023-04-28T01:37:02;100932.16;;;4.44;100.00
62124;BME280;48110;47.532;19.078;2023-04-28T01:40:05;100929.09;;;4.26;100.00
62124;BME280;48110;47.532;19.078;2023-04-28T01:43:08;100933.53;;;4.26;100.00
62124;BME280;48110;47.532;19.078;2023-04-28T01:46:11;100927.81;;;4.32;100.00
62124;BME280;48110;47.532;19.078;2023-04-28T01:49:13;100924.03;;;4.12;100.00
62124;BME280;48110;47.532;19.078;2023-04-28T01:52:15;100931.72;;;3.91;100.00
62124;BME280;48110;47.532;19.078;2023-04-28T01:55:21;100919.25;;;3.82;100.00
62124;BME280;48110;47.532;19.078;2023-04-28T01:58:24;100922.09;;;4.03;100.00
62124;BME280;48110;47.532;19.078;2023-04-28T02:01:27;100929.47;;;3.98;100.00
62124;BME280;48110;47.532;19.078;2023-04-28T02:04:30;100930.75;;;3.92;100.00
62124;BME280;48110;47.532;19.078;2023-04-28T02:07:32;100937.72;;;3.81;100.00
62124;BME280;48110;47.532;19.078;2023-04-28T02:10:35;100933.16;;;3.72;100.00
62124;BME280;48110;47.532;19.078;2023-04-28T02:13:37;100940.03;;;3.49;100.00
62124;BME280;48110;47.532;19.078;2023-04-28T02:16:40;100945.50;;;3.46;100.00
62124;BME280;48110;47.532;19.078;2023-04-28T02:19:45;100939.16;;;3.61;100.00
62124;BME280;48110;47.532;19.078;2023-04-28T02:22:48;100940.72;;;3.64;100.00
62124;BME280;48110;47.532;19.078;2023-04-28T02:25:58;100941.13;;;3.70;100.00
62124;BME280;48110;47.532;19.078;2023-04-28T02:29:01;100942.72;;;3.60;100.00
62124;BME280;48110;47.532;19.078;2023-04-28T02:32:07;100935.94;;;3.45;100.00
62124;BME280;48110;47.532;19.078;2023-04-28T02:35:09;100939.88;;;3.27;100.00
62124;BME280;48110;47.532;19.078;2023-04-28T02:38:12;100937.91;;;3.18;100.00
62124;BME280;48110;47.532;19.078;2023-04-28T02:41:15;100937.06;;;3.17;100.00
62124;BME280;48110;47.532;19.078;2023-04-28T02:44:17;100942.09;;;3.08;100.00
62124;BME280;48110;47.532;19.078;2023-04-28T02:47:20;100944.09;;;3.04;100.00
62124;BME280;48110;47.532;19.078;2023-04-28T02:50:22;100938.97;;;3.02;100.00
62124;BME280;48110;47.532;19.078;2023-04-28T02:53:25;100941.69;;;3.01;100.00
62124;BME280;48110;47.532;19.078;2023-04-28T02:56:27;100939.38;;;2.96;100.00
62124;BME280;48110;47.532;19.078;2023-04-28T02:59:31;100941.59;;;2.90;100.00
62124;BME280;48110;47.532;19.078;2023-04-28T03:02:34;100948.81;;;2.86;100.00
62124;BME280;48110;47.532;19.078;2023-04-28T03:05:37;100947.16;;;2.85;100.00
62124;BME280;48110;47.532;19.078;2023-04-28T03:08:39;100945.87;;;2.91;100.00
62124;BME280;48110;47.532;19.078;2023-04-28T03:11:43;100945.78;;;2.92;100.00
62124;BME280;48110;47.532;19.078;2023-04-28T03:14:45;100945.16;;;2.89;100.00
62124;BME280;48110;47.532;19.078;2023-04-28T03:17:48;100953.44;;;3.08;100.00
62124;BME280;48110;47.532;19.078;2023-04-28T03:20:50;100958.22;;;3.27;100.00
62124;BME280;48110;47.532;19.078;2023-04-28T03:23:54;100955.28;;;3.31;100.00
62124;BME280;48110;47.532;19.078;2023-04-28T03:26:57;100957.06;;;3.31;100.00
62124;BME280;48110;47.532;19.078;2023-04-28T03:29:59;100959.97;;;3.39;100.00
62124;BME280;48110;47.532;19.078;2023-04-28T03:33:02;100956.41;;;3.40;100.00
62124;BME280;48110;47.532;19.078;2023-04-28T03:36:05;100960.66;;;3.17;100.00
62124;BME280;48110;47.532;19.078;2023-04-28T03:39:07;100965.91;;;3.04;100.00
62124;BME280;48110;47.532;19.078;2023-04-28T03:42:11;100960.56;;;2.93;100.00
62124;BME280;48110;47.532;19.078;2023-04-28T03:45:16;100956.56;;;2.88;100.00
62124;BME280;48110;47.532;19.078;2023-04-28T03:48:20;100959.09;;;2.89;100.00
62124;BME280;48110;47.532;19.078;2023-04-28T03:51:23;100957.19;;;2.91;100.00
62124;BME280;48110;47.532;19.078;2023-04-28T03:54:25;100958.66;;;2.95;100.00
62124;BME280;48110;47.532;19.078;2023-04-28T03:57:28;100961.69;;;3.02;100.00
62124;BME280;48110;47.532;19.078;2023-04-28T04:00:30;100969.34;;;3.05;100.00
62124;BME280;48110;47.532;19.078;2023-04-28T04:03:33;100966.22;;;3.13;100.00
62124;BME280;48110;47.532;19.078;2023-04-28T04:06:36;100977.31;;;3.16;100.00
62124;BME280;48110;47.532;19.078;2023-04-28T04:09:39;100972.37;;;3.37;100.00
62124;BME280;48110;47.532;19.078;2023-04-28T04:12:41;100975.81;;;3.50;100.00
62124;BME280;48110;47.532;19.078;2023-04-28T04:15:44;100977.03;;;3.70;100.00
62124;BME280;48110;47.532;19.078;2023-04-28T04:18:46;100981.00;;;3.75;100.00
62124;BME280;48110;47.532;19.078;2023-04-28T04:21:51;100978.38;;;3.75;100.00
62124;BME280;48110;47.532;19.078;2023-04-28T04:24:53;100983.19;;;3.81;100.00
62124;BME280;48110;47.532;19.078;2023-04-28T04:27:56;100985.34;;;3.87;100.00
62124;BME280;48110;47.532;19.078;2023-04-28T04:31:02;100991.19;;;4.04;100.00
62124;BME280;48110;47.532;19.078;2023-04-28T04:34:06;100989.06;;;4.09;100.00
62124;BME280;48110;47.532;19.078;2023-04-28T04:37:08;100980.75;;;4.15;100.00
62124;BME280;48110;47.532;19.078;2023-04-28T04:40:13;100984.72;;;4.20;100.00
62124;BME280;48110;47.532;19.078;2023-04-28T04:43:16;100988.84;;;4.35;100.00
62124;BME280;48110;47.532;19.078;2023-04-28T04:46:19;100976.47;;;4.49;100.00
62124;BME280;48110;47.532;19.078;2023-04-28T04:49:22;100986.69;;;4.64;100.00
62124;BME280;48110;47.532;19.078;2023-04-28T04:52:25;100992.44;;;4.69;100.00
62124;BME280;48110;47.532;19.078;2023-04-28T04:55:28;100981.34;;;4.88;100.00
62124;BME280;48110;47.532;19.078;2023-04-28T04:58:31;100994.78;;;5.07;100.00
62124;BME280;48110;47.532;19.078;2023-04-28T05:01:35;100994.75;;;5.18;100.00
62124;BME280;48110;47.532;19.078;2023-04-28T05:04:38;100990.25;;;5.54;100.00
62124;BME280;48110;47.532;19.078;2023-04-28T05:07:41;100989.87;;;5.69;100.00
62124;BME280;48110;47.532;19.078;2023-04-28T05:10:44;100988.56;;;5.64;100.00
62124;BME280;48110;47.532;19.078;2023-04-28T05:13:47;100997.16;;;5.88;100.00
62124;BME280;48110;47.532;19.078;2023-04-28T05:16:49;100996.41;;;6.08;100.00
62124;BME280;48110;47.532;19.078;2023-04-28T05:19:54;100993.59;;;6.21;100.00
62124;BME280;48110;47.532;19.078;2023-04-28T05:22:58;100999.59;;;6.23;100.00
62124;BME280;48110;47.532;19.078;2023-04-28T05:26:00;100999.19;;;6.39;100.00
62124;BME280;48110;47.532;19.078;2023-04-28T05:29:04;101009.50;;;6.63;100.00
62124;BME280;48110;47.532;19.078;2023-04-28T05:32:07;101000.56;;;6.75;99.13
62124;BME280;48110;47.532;19.078;2023-04-28T05:35:10;101003.13;;;6.65;96.02
62124;BME280;48110;47.532;19.078;2023-04-28T05:38:13;101003.59;;;6.70;94.48
62124;BME280;48110;47.532;19.078;2023-04-28T05:41:17;101010.78;;;6.89;93.22
62124;BME280;48110;47.532;19.078;2023-04-28T05:44:19;101005.84;;;6.75;91.55
62124;BME280;48110;47.532;19.078;2023-04-28T05:47:22;101001.47;;;7.06;88.42
62124;BME280;48110;47.532;19.078;2023-04-28T05:50:25;101006.09;;;7.13;89.21
62124;BME280;48110;47.532;19.078;2023-04-28T05:53:27;101003.37;;;7.55;85.55
62124;BME280;48110;47.532;19.078;2023-04-28T05:56:30;101006.41;;;8.00;83.17
62124;BME280;48110;47.532;19.078;2023-04-28T05:59:33;101009.03;;;8.40;77.20
62124;BME280;48110;47.532;19.078;2023-04-28T06:02:35;101013.75;;;8.84;74.11
62124;BME280;48110;47.532;19.078;2023-04-28T06:05:38;101011.09;;;8.84;71.77
62124;BME280;48110;47.532;19.078;2023-04-28T06:08:41;101020.59;;;9.33;67.03
62124;BME280;48110;47.532;19.078;2023-04-28T06:11:44;101022.00;;;9.28;66.07
62124;BME280;48110;47.532;19.078;2023-04-28T06:14:46;101017.75;;;9.44;66.65
62124;BME280;48110;47.532;19.078;2023-04-28T06:17:49;101020.00;;;9.39;64.75
62124;BME280;48110;47.532;19.078;2023-04-28T06:20:52;101024.47;;;9.48;63.43
62124;BME280;48110;47.532;19.078;2023-04-28T06:23:55;101021.19;;;9.18;64.78
62124;BME280;48110;47.532;19.078;2023-04-28T06:26:57;101025.28;;;9.49;65.83
62124;BME280;48110;47.532;19.078;2023-04-28T06:30:00;101018.59;;;9.82;64.24
62124;BME280;48110;47.532;19.078;2023-04-28T06:33:05;101026.81;;;10.16;62.76
62124;BME280;48110;47.532;19.078;2023-04-28T06:36:09;101025.81;;;10.87;62.27
62124;BME280;48110;47.532;19.078;2023-04-28T06:39:15;101024.16;;;11.38;59.10
62124;BME280;48110;47.532;19.078;2023-04-28T06:42:17;101023.28;;;11.55;57.60
62124;BME280;48110;47.532;19.078;2023-04-28T06:45:24;101023.91;;;11.49;57.16
62124;BME280;48110;47.532;19.078;2023-04-28T06:48:26;101019.75;;;11.21;59.58
62124;BME280;48110;47.532;19.078;2023-04-28T06:51:30;101017.31;;;11.02;61.23
62124;BME280;48110;47.532;19.078;2023-04-28T06:54:34;101036.31;;;11.66;56.22
62124;BME280;48110;47.532;19.078;2023-04-28T06:57:36;101021.31;;;11.31;57.53
62124;BME280;48110;47.532;19.078;2023-04-28T07:00:39;101020.41;;;10.97;57.89
62124;BME280;48110;47.532;19.078;2023-04-28T07:03:43;101023.37;;;12.13;55.47
62124;BME280;48110;47.532;19.078;2023-04-28T07:06:46;101021.28;;;12.41;51.05
62124;BME280;48110;47.532;19.078;2023-04-28T07:09:49;101014.62;;;12.70;49.79
62124;BME280;48110;47.532;19.078;2023-04-28T07:12:53;101010.81;;;12.56;49.94
62124;BME280;48110;47.532;19.078;2023-04-28T07:15:56;101012.94;;;12.44;49.63
62124;BME280;48110;47.532;19.078;2023-04-28T07:18:58;101007.97;;;12.66;48.67
62124;BME280;48110;47.532;19.078;2023-04-28T07:22:01;101005.00;;;12.60;51.92
62124;BME280;48110;47.532;19.078;2023-04-28T07:25:04;101005.25;;;13.93;46.82
62124;BME280;48110;47.532;19.078;2023-04-28T07:28:07;101004.41;;;14.92;44.64
62124;BME280;48110;47.532;19.078;2023-04-28T07:31:09;101004.06;;;14.95;44.66
62124;BME280;48110;47.532;19.078;2023-04-28T07:34:12;101009.56;;;14.94;43.30
62124;BME280;48110;47.532;19.078;2023-04-28T07:37:16;101003.03;;;14.59;44.31
62124;BME280;48110;47.532;19.078;2023-04-28T07:40:18;101009.28;;;16.35;41.13
62124;BME280;48110;47.532;19.078;2023-04-28T07:43:21;101003.88;;;16.71;39.03
62124;BME280;48110;47.532;19.078;2023-04-28T07:46:23;101003.66;;;16.51;38.48
62124;BME280;48110;47.532;19.078;2023-04-28T07:49:29;101002.06;;;16.57;40.01
62124;BME280;48110;47.532;19.078;2023-04-28T07:52:32;101002.44;;;16.54;39.57
62124;BME280;48110;47.532;19.078;2023-04-28T07:55:35;100992.47;;;15.17;41.42
62124;BME280;48110;47.532;19.078;2023-04-28T07:58:40;100985.38;;;15.10;42.27
62124;BME280;48110;47.532;19.078;2023-04-28T08:01:43;100990.59;;;15.55;40.52
62124;BME280;48110;47.532;19.078;2023-04-28T08:04:46;100977.28;;;15.91;39.04
62124;BME280;48110;47.532;19.078;2023-04-28T08:07:48;100976.84;;;16.51;38.91
62124;BME280;48110;47.532;19.078;2023-04-28T08:10:51;100967.84;;;17.02;38.23
62124;BME280;48110;47.532;19.078;2023-04-28T08:13:54;100959.78;;;17.64;36.61
62124;BME280;48110;47.532;19.078;2023-04-28T08:16:58;100966.09;;;17.91;36.36
62124;BME280;48110;47.532;19.078;2023-04-28T08:20:00;100956.66;;;17.26;37.70
62124;BME280;48110;47.532;19.078;2023-04-28T08:23:03;100952.16;;;18.41;34.46
62124;BME280;48110;47.532;19.078;2023-04-28T08:26:06;100948.81;;;18.26;34.02
62124;BME280;48110;47.532;19.078;2023-04-28T08:29:08;100951.13;;;18.29;33.13
62124;BME280;48110;47.532;19.078;2023-04-28T08:32:11;100940.75;;;19.18;32.07
62124;BME280;48110;47.532;19.078;2023-04-28T08:35:13;100939.00;;;19.63;30.25
62124;BME280;48110;47.532;19.078;2023-04-28T08:38:16;100942.81;;;19.93;29.25
62124;BME280;48110;47.532;19.078;2023-04-28T08:41:19;100934.34;;;19.19;30.10
62124;BME280;48110;47.532;19.078;2023-04-28T08:44:22;100934.66;;;20.07;30.10
62124;BME280;48110;47.532;19.078;2023-04-28T08:47:29;100932.59;;;20.40;29.39
62124;BME280;48110;47.532;19.078;2023-04-28T08:50:34;100920.25;;;21.00;29.44
62124;BME280;48110;47.532;19.078;2023-04-28T08:53:38;100923.22;;;21.17;27.93
62124;BME280;48110;47.532;19.078;2023-04-28T08:57:00;100910.12;;;20.15;28.51
62124;BME280;48110;47.532;19.078;2023-04-28T09:00:04;100913.44;;;21.71;25.48
62124;BME280;48110;47.532;19.078;2023-04-28T09:03:07;100918.97;;;21.94;25.53
62124;BME280;48110;47.532;19.078;2023-04-28T09:06:10;100922.97;;;21.55;27.82
62124;BME280;48110;47.532;19.078;2023-04-28T09:09:47;100913.53;;;21.09;27.96
62124;BME280;48110;47.532;19.078;2023-04-28T09:12:47;100916.16;;;21.71;25.64
62124;BME280;48110;47.532;19.078;2023-04-28T09:15:50;100908.56;;;22.09;24.95
62124;BME280;48110;47.532;19.078;2023-04-28T09:19:00;100915.47;;;22.46;24.29
62124;BME280;48110;47.532;19.078;2023-04-28T09:22:03;100908.69;;;21.36;24.99
62124;BME280;48110;47.532;19.078;2023-04-28T09:25:25;100899.56;;;20.94;26.14
62124;BME280;48110;47.532;19.078;2023-04-28T09:28:29;100906.97;;;20.56;28.56
62124;BME280;48110;47.532;19.078;2023-04-28T09:31:32;100911.53;;;21.89;27.25
62124;BME280;48110;47.532;19.078;2023-04-28T09:34:45;100911.75;;;21.21;27.11
62124;BME280;48110;47.532;19.078;2023-04-28T09:37:48;100899.97;;;19.41;28.95
62124;BME280;48110;47.532;19.078;2023-04-28T09:41:01;100904.66;;;20.84;27.22
62124;BME280;48110;47.532;19.078;2023-04-28T09:47:18;100891.47;;;20.94;26.64
62124;BME280;48110;47.532;19.078;2023-04-28T09:50:23;100883.56;;;20.74;26.62
62124;BME280;48110;47.532;19.078;2023-04-28T09:53:26;100876.50;;;19.99;28.63
62124;BME280;48110;47.532;19.078;2023-04-28T09:56:30;100869.28;;;18.38;30.40
62124;BME280;48110;47.532;19.078;2023-04-28T09:59:34;100876.28;;;20.25;29.58
62124;BME280;48110;47.532;19.078;2023-04-28T10:02:38;100879.47;;;22.11;26.70
62124;BME280;48110;47.532;19.078;2023-04-28T10:05:47;100878.06;;;20.63;27.74
62124;BME280;48110;47.532;19.078;2023-04-28T10:08:50;100864.84;;;20.30;27.80
62124;BME280;48110;47.532;19.078;2023-04-28T10:11:54;100865.91;;;20.04;27.80
62124;BME280;48110;47.532;19.078;2023-04-28T10:14:58;100861.38;;;20.72;27.42
62124;BME280;48110;47.532;19.078;2023-04-28T10:18:03;100858.59;;;21.04;27.06
62124;BME280;48110;47.532;19.078;2023-04-28T10:21:06;100841.84;;;21.20;27.50
62124;BME280;48110;47.532;19.078;2023-04-28T10:24:14;100854.41;;;19.84;27.99
62124;BME280;48110;47.532;19.078;2023-04-28T10:27:18;100839.75;;;18.18;29.91
62124;BME280;48110;47.532;19.078;2023-04-28T10:30:21;100836.41;;;17.90;32.62
62124;BME280;48110;47.532;19.078;2023-04-28T10:33:30;100828.91;;;19.55;28.75
62124;BME280;48110;47.532;19.078;2023-04-28T10:40:29;100817.13;;;21.64;26.71
62124;BME280;48110;47.532;19.078;2023-04-28T10:46:34;100807.97;;;23.23;23.88
62124;BME280;48110;47.532;19.078;2023-04-28T10:52:58;100802.81;;;24.12;22.53
62124;BME280;48110;47.532;19.078;2023-04-28T10:56:04;100804.28;;;21.18;26.07
62124;BME280;48110;47.532;19.078;2023-04-28T10:59:23;100788.63;;;20.91;27.73
62124;BME280;48110;47.532;19.078;2023-04-28T11:02:37;100778.63;;;20.05;28.10
62124;BME280;48110;47.532;19.078;2023-04-28T11:12:19;100765.34;;;18.39;30.50
62124;BME280;48110;47.532;19.078;2023-04-28T11:15:22;100762.37;;;19.31;30.60
62124;BME280;48110;47.532;19.078;2023-04-28T11:18:24;100753.38;;;19.50;31.32
62124;BME280;48110;47.532;19.078;2023-04-28T11:21:30;100757.53;;;19.77;29.16
62124;BME280;48110;47.532;19.078;2023-04-28T11:24:33;100760.28;;;19.95;29.08
62124;BME280;48110;47.532;19.078;2023-04-28T11:27:36;100768.81;;;19.92;29.20
62124;BME280;48110;47.532;19.078;2023-04-28T11:30:38;100767.16;;;18.78;30.60
62124;BME280;48110;47.532;19.078;2023-04-28T11:33:41;100757.00;;;18.80;30.26
62124;BME280;48110;47.532;19.078;2023-04-28T11:36:44;100757.94;;;17.81;32.38
62124;BME280;48110;47.532;19.078;2023-04-28T11:39:47;100755.03;;;17.70;33.38
62124;BME280;48110;47.532;19.078;2023-04-28T11:42:50;100746.78;;;18.11;34.54
62124;BME280;48110;47.532;19.078;2023-04-28T11:45:54;100757.75;;;18.09;32.86
62124;BME280;48110;47.532;19.078;2023-04-28T11:49:03;100764.78;;;17.91;32.07
62124;BME280;48110;47.532;19.078;2023-04-28T11:52:08;100764.56;;;17.86;32.74
62124;BME280;48110;47.532;19.078;2023-04-28T11:55:11;100759.78;;;18.07;32.50
62124;BME280;48110;47.532;19.078;2023-04-28T11:58:18;100743.50;;;17.89;33.08
62124;BME280;48110;47.532;19.078;2023-04-28T12:01:23;100746.94;;;18.36;33.65
62124;BME280;48110;47.532;19.078;2023-04-28T12:04:39;100737.03;;;17.57;33.43
62124;BME280;48110;47.532;19.078;2023-04-28T12:07:41;100732.06;;;18.40;31.73
62124;BME280;48110;47.532;19.078;2023-04-28T12:11:05;100723.84;;;18.28;32.57
62124;BME280;48110;47.532;19.078;2023-04-28T12:14:08;100729.84;;;18.04;33.99
62124;BME280;48110;47.532;19.078;2023-04-28T12:17:21;100739.56;;;17.65;33.45
62124;BME280;48110;47.532;19.078;2023-04-28T12:20:37;100718.41;;;17.23;33.93
62124;BME280;48110;47.532;19.078;2023-04-28T12:23:40;100724.03;;;16.74;34.94
62124;BME280;48110;47.532;19.078;2023-04-28T12:26:44;100720.38;;;16.94;36.03
62124;BME280;48110;47.532;19.078;2023-04-28T12:29:47;100713.84;;;17.17;34.52
62124;BME280;48110;47.532;19.078;2023-04-28T12:32:50;100718.44;;;17.36;35.23
62124;BME280;48110;47.532;19.078;2023-04-28T12:35:53;100703.44;;;17.61;35.06
62124;BME280;48110;47.532;19.078;2023-04-28T12:38:56;100705.88;;;17.56;34.97
62124;BME280;48110;47.532;19.078;2023-04-28T12:41:59;100697.84;;;17.63;34.54
62124;BME280;48110;47.532;19.078;2023-04-28T12:45:05;100685.00;;;18.11;34.69
62124;BME280;48110;47.532;19.078;2023-04-28T12:48:08;100683.94;;;18.96;32.68
62124;BME280;48110;47.532;19.078;2023-04-28T12:51:10;100668.25;;;18.29;33.63
62124;BME280;48110;47.532;19.078;2023-04-28T12:54:13;100651.66;;;18.58;33.91
62124;BME280;48110;47.532;19.078;2023-04-28T12:57:16;100659.44;;;19.91;32.36
62124;BME280;48110;47.532;19.078;2023-04-28T13:00:20;100655.38;;;20.62;30.92
62124;BME280;48110;47.532;19.078;2023-04-28T13:03:24;100635.94;;;21.01;30.71
62124;BME280;48110;47.532;19.078;2023-04-28T13:06:27;100625.78;;;21.80;29.25
62124;BME280;48110;47.532;19.078;2023-04-28T13:09:30;100627.69;;;24.76;25.92
62124;BME280;48110;47.532;19.078;2023-04-28T13:12:33;100621.47;;;23.94;25.95
62124;BME280;48110;47.532;19.078;2023-04-28T13:15:35;100616.16;;;23.82;28.07
62124;BME280;48110;47.532;19.078;2023-04-28T13:18:40;100605.56;;;20.64;30.40
62124;BME280;48110;47.532;19.078;2023-04-28T13:21:43;100611.47;;;21.56;29.55
62124;BME280;48110;47.532;19.078;2023-04-28T13:24:46;100618.09;;;20.04;31.34
62124;BME280;48110;47.532;19.078;2023-04-28T13:27:49;100623.34;;;19.99;31.45
62124;BME280;48110;47.532;19.078;2023-04-28T13:30:52;100615.16;;;19.38;32.12
62124;BME280;48110;47.532;19.078;2023-04-28T13:33:54;100616.00;;;19.38;33.65
62124;BME280;48110;47.532;19.078;2023-04-28T13:36:57;100617.66;;;19.08;32.60
62124;BME280;48110;47.532;19.078;2023-04-28T13:40:00;100616.28;;;19.30;34.10
62124;BME280;48110;47.532;19.078;2023-04-28T13:43:06;100614.25;;;18.94;32.51
62124;BME280;48110;47.532;19.078;2023-04-28T13:46:09;100611.31;;;18.64;33.57
62124;BME280;48110;47.532;19.078;2023-04-28T13:49:12;100610.41;;;18.33;33.96
62124;BME280;48110;47.532;19.078;2023-04-28T13:52:15;100598.62;;;18.27;33.86
62124;BME280;48110;47.532;19.078;2023-04-28T13:55:17;100594.03;;;17.57;34.88
62124;BME280;48110;47.532;19.078;2023-04-28T13:58:20;100582.47;;;17.69;34.70
62124;BME280;48110;47.532;19.078;2023-04-28T14:01:23;100579.94;;;18.52;33.77
62124;BME280;48110;47.532;19.078;2023-04-28T14:04:26;100568.44;;;19.57;32.57
62124;BME280;48110;47.532;19.078;2023-04-28T14:07:29;100568.34;;;19.88;32.11
62124;BME280;48110;47.532;19.078;2023-04-28T14:10:32;100561.81;;;19.10;32.61
62124;BME280;48110;47.532;19.078;2023-04-28T14:13:35;100547.75;;;19.58;31.92
62124;BME280;48110;47.532;19.078;2023-04-28T14:16:37;100549.84;;;17.86;34.62
62124;BME280;48110;47.532;19.078;2023-04-28T14:19:40;100555.47;;;17.51;35.91
62124;BME280;48110;47.532;19.078;2023-04-28T14:22:43;100562.87;;;17.56;35.71
62124;BME280;48110;47.532;19.078;2023-04-28T14:25:45;100558.13;;;17.51;35.31
62124;BME280;48110;47.532;19.078;2023-04-28T14:28:48;100555.28;;;17.13;37.35
62124;BME280;48110;47.532;19.078;2023-04-28T14:31:50;100558.97;;;17.38;36.42
62124;BME280;48110;47.532;19.078;2023-04-28T14:34:53;100551.53;;;17.14;36.64
62124;BME280;48110;47.532;19.078;2023-04-28T14:37:56;100543.50;;;16.94;37.04
62124;BME280;48110;47.532;19.078;2023-04-28T14:40:58;100550.31;;;17.10;38.23
62124;BME280;48110;47.532;19.078;2023-04-28T14:44:07;100536.31;;;17.28;38.51
62124;BME280;48110;47.532;19.078;2023-04-28T14:47:10;100536.69;;;17.38;37.64
62124;BME280;48110;47.532;19.078;2023-04-28T14:50:12;100535.25;;;17.16;39.62
62124;BME280;48110;47.532;19.078;2023-04-28T14:53:15;100529.50;;;17.12;39.79
62124;BME280;48110;47.532;19.078;2023-04-28T14:56:18;100540.19;;;17.25;38.20
62124;BME280;48110;47.532;19.078;2023-04-28T14:59:21;100534.00;;;16.79;38.16
62124;BME280;48110;47.532;19.078;2023-04-28T15:02:24;100532.31;;;16.58;38.69
62124;BME280;48110;47.532;19.078;2023-04-28T15:05:31;100521.44;;;16.86;38.47
62124;BME280;48110;47.532;19.078;2023-04-28T15:08:33;100519.97;;;16.77;39.16
62124;BME280;48110;47.532;19.078;2023-04-28T15:11:36;100513.97;;;16.55;39.28
62124;BME280;48110;47.532;19.078;2023-04-28T15:14:39;100511.53;;;16.60;39.45
62124;BME280;48110;47.532;19.078;2023-04-28T15:17:41;100512.56;;;17.05;39.19
62124;BME280;48110;47.532;19.078;2023-04-28T15:20:44;100517.94;;;17.05;38.54
62124;BME280;48110;47.532;19.078;2023-04-28T15:23:47;100511.53;;;16.86;38.96
62124;BME280;48110;47.532;19.078;2023-04-28T15:26:50;100507.22;;;16.85;39.83
62124;BME280;48110;47.532;19.078;2023-04-28T15:29:53;100505.56;;;17.04;39.11
62124;BME280;48110;47.532;19.078;2023-04-28T15:32:56;100500.81;;;17.00;40.47
62124;BME280;48110;47.532;19.078;2023-04-28T15:35:58;100501.66;;;16.87;39.67
62124;BME280;48110;47.532;19.078;2023-04-28T15:39:01;100492.38;;;16.76;40.03
62124;BME280;48110;47.532;19.078;2023-04-28T15:42:04;100493.00;;;16.78;40.19
62124;BME280;48110;47.532;19.078;2023-04-28T15:45:06;100493.38;;;16.62;40.98
62124;BME280;48110;47.532;19.078;2023-04-28T15:48:11;100493.53;;;16.41;40.54
62124;BME280;48110;47.532;19.078;2023-04-28T15:51:14;100486.91;;;16.37;40.96
62124;BME280;48110;47.532;19.078;2023-04-28T15:54:16;100481.88;;;16.07;41.37
62124;BME280;48110;47.532;19.078;2023-04-28T15:57:19;100471.56;;;15.98;41.57
62124;BME280;48110;47.532;19.078;2023-04-28T16:00:22;100467.72;;;16.07;42.54
62124;BME280;48110;47.532;19.078;2023-04-28T16:03:25;100466.66;;;16.08;42.04
62124;BME280;48110;47.532;19.078;2023-04-28T16:06:28;100462.78;;;16.11;41.92
62124;BME280;48110;47.532;19.078;2023-04-28T16:09:32;100457.00;;;16.07;42.57